Time;durP1;ratioP1;P1;durP2;ratioP2;P2;SDS_P1;SDS_P2;PMS_P1;PMS_P2;Temp;Humidity;BMP_temperature;BMP_pressure;BME280_temperature;BME280_humidity;BME280_pressure;Samples;Min_cycle;Max_cycle;Signal;HPM_P1;HPM_P2
2021/11/25 12:15:03;;;;;;;35.95;16.92;;;;;;;1.82;97.92;98377.75;5116235;27;20728;-85
2021/11/25 12:17:39;;;;;;;32.08;14.38;;;;;;;1.88;96.78;98367.31;5111020;28;20079;-86
2021/11/25 12:20:33;;;;;;;30.38;15.80;;;;;;;1.88;96.75;98375.34;5100192;28;20108;-86
2021/11/25 12:23:03;;;;;;;31.40;15.70;;;;;;;1.82;96.19;98380.44;5092536;28;20053;-86
2021/11/25 12:25:46;;;;;;;33.53;14.90;;;;;;;1.44;97.84;98364.38;5110340;27;20101;-86
2021/11/25 12:28:52;;;;;;;28.80;14.40;;;;;;;1.55;97.37;98358.00;5111327;28;20414;-86
2021/11/25 12:31:52;;;;;;;38.97;15.80;;;;;;;1.64;97.11;98353.59;5079592;28;20056;-86
2021/11/25 12:34:34;;;;;;;37.78;16.10;;;;;;;1.46;98.08;98357.06;5090633;28;20550;-86
2021/11/25 12:37:02;;;;;;;36.58;14.90;;;;;;;1.62;97.79;98369.81;5091631;28;20068;-86
2021/11/25 12:39:42;;;;;;;32.47;14.68;;;;;;;1.61;95.64;98356.56;5101244;28;20052;-85
2021/11/25 12:42:09;;;;;;;34.10;15.65;;;;;;;1.59;96.39;98357.53;5111190;28;20043;-86
2021/11/25 12:44:44;;;;;;;33.30;15.93;;;;;;;1.60;95.75;98358.41;5110579;28;20399;-86
2021/11/25 12:47:20;;;;;;;31.83;14.63;;;;;;;1.55;96.83;98364.22;5111597;27;20131;-85
2021/11/25 12:49:48;;;;;;;32.00;14.82;;;;;;;1.55;97.29;98366.91;5098539;28;20049;-86
2021/11/25 12:52:30;;;;;;;32.17;14.23;;;;;;;1.54;96.82;98375.91;5090623;28;20058;-86
2021/11/25 12:55:09;;;;;;;34.92;16.17;;;;;;;1.59;96.32;98362.91;5093008;28;20130;-86
2021/11/25 12:57:52;;;;;;;31.83;15.73;;;;;;;1.50;96.19;98374.50;5110521;28;20054;-85
2021/11/25 13:00:21;;;;;;;31.73;15.63;;;;;;;1.51;95.51;98348.59;5109145;28;20514;-86
2021/11/25 13:02:59;;;;;;;31.65;15.27;;;;;;;1.52;95.06;98369.88;5110771;28;20056;-86
2021/11/25 13:05:27;;;;;;;33.42;15.18;;;;;;;1.47;95.15;98353.38;5109876;28;20052;-86
2021/11/25 13:07:57;;;;;;;24.45;12.52;;;;;;;1.41;95.17;98362.00;5110172;28;20050;-86
2021/11/25 13:10:27;;;;;;;27.40;13.45;;;;;;;1.57;94.84;98366.75;5108904;27;20431;-85
2021/11/25 13:13:12;;;;;;;32.13;14.43;;;;;;;1.47;94.60;98368.63;5101425;28;20044;-87
2021/11/25 13:15:40;;;;;;;28.73;13.45;;;;;;;1.58;94.72;98366.59;5078029;28;20484;-87
2021/11/25 13:18:19;;;;;;;29.92;14.63;;;;;;;1.73;93.61;98366.09;5076949;28;20048;-90
2021/11/25 13:20:48;;;;;;;32.28;14.82;;;;;;;1.42;95.38;98369.88;5076559;28;20058;-85
2021/11/25 13:23:25;;;;;;;35.55;15.77;;;;;;;1.52;94.97;98371.69;5089305;28;20064;-86
2021/11/25 13:26:04;;;;;;;31.88;14.38;;;;;;;1.59;94.27;98346.84;5094129;28;20549;-86
2021/11/25 13:28:36;;;;;;;31.23;15.75;;;;;;;1.49;94.90;98335.34;5096729;28;20059;-86
2021/11/25 13:31:14;;;;;;;33.88;15.55;;;;;;;1.47;95.31;98339.16;5087121;28;20052;-86
2021/11/25 13:34:05;;;;;;;33.38;16.35;;;;;;;1.38;96.72;98356.94;5091336;28;20131;-86
2021/11/25 13:36:44;;;;;;;35.40;17.75;;;;;;;1.46;96.05;98361.56;5095413;28;20076;-86
2021/11/25 13:39:12;;;;;;;38.97;17.48;;;;;;;1.48;97.08;98360.44;5094470;28;20059;-86
2021/11/25 13:41:41;;;;;;;41.20;16.38;;;;;;;1.59;95.93;98364.75;5076000;28;20048;-85
2021/11/25 13:44:09;;;;;;;38.10;16.38;;;;;;;1.48;94.95;98348.88;5075766;28;20048;-86
2021/11/25 13:46:43;;;;;;;45.53;17.17;;;;;;;1.56;95.70;98357.00;5096293;28;20555;-86
2021/11/25 13:49:13;;;;;;;36.20;16.38;;;;;;;1.53;95.79;98349.28;5088142;28;20056;-86
2021/11/25 13:51:42;;;;;;;38.85;16.50;;;;;;;1.55;95.18;98366.03;5096453;28;20052;-85
2021/11/25 13:54:15;;;;;;;36.58;16.50;;;;;;;1.58;94.99;98365.72;5096116;28;20052;-86
2021/11/25 13:56:44;;;;;;;36.22;16.10;;;;;;;1.32;96.21;98342.28;5095620;28;20135;-86
2021/11/25 13:59:19;;;;;;;39.45;16.65;;;;;;;1.25;95.83;98349.25;5095723;28;20071;-86
2021/11/25 14:01:48;;;;;;;39.03;17.42;;;;;;;1.20;96.59;98338.09;5075818;28;20056;-85
2021/11/25 14:04:18;;;;;;;39.90;16.50;;;;;;;1.17;96.61;98341.91;5076594;28;20040;-86
2021/11/25 14:06:46;;;;;;;36.05;16.92;;;;;;;1.21;95.33;98337.13;5095523;28;20576;-86
2021/11/25 14:09:15;;;;;;;37.88;17.48;;;;;;;1.36;95.50;98351.72;5094441;28;20229;-86
2021/11/25 14:12:07;;;;;;;37.67;15.55;;;;;;;1.17;96.98;98360.66;5082341;28;20102;-86
2021/11/25 14:14:43;;;;;;;38.17;16.23;;;;;;;1.24;96.88;98372.47;5076293;28;20477;-86
2021/11/25 14:17:12;;;;;;;41.42;18.67;;;;;;;1.32;96.75;98368.22;5089857;28;20048;-85
2021/11/25 14:19:58;;;;;;;34.20;15.95;;;;;;;1.30;96.44;98365.69;5097513;28;20055;-86
2021/11/25 14:22:38;;;;;;;39.00;17.35;;;;;;;1.21;96.77;98369.25;5097216;28;20527;-86
2021/11/25 14:25:22;;;;;;;38.67;17.05;;;;;;;1.23;97.13;98380.66;5094362;28;20109;-86
2021/11/25 14:30:36;;;;;;;35.05;16.75;;;;;;;1.19;96.24;98380.13;5085883;28;20050;-86
2021/11/25 14:33:07;;;;;;;33.28;15.82;;;;;;;1.15;96.09;98353.78;5095162;28;20044;-86
2021/11/25 14:35:45;;;;;;;36.97;16.10;;;;;;;1.09;96.82;98359.72;5093715;28;20480;-86
2021/11/25 14:41:31;;;;;;;43.00;19.02;;;;;;;1.12;97.28;98362.94;5078435;28;20059;-86
2021/11/25 14:44:13;;;;;;;33.67;15.80;;;;;;;1.30;96.16;98379.09;5076850;28;20094;-86
2021/11/25 14:47:05;;;;;;;38.20;17.23;;;;;;;1.14;98.07;98374.31;5078193;28;20051;-85
2021/11/25 14:49:33;;;;;;;36.03;16.80;;;;;;;1.08;97.76;98377.59;5074994;28;20090;-86
2021/11/25 14:52:17;;;;;;;39.55;17.58;;;;;;;1.03;98.40;98367.31;5093218;28;20079;-85
2021/11/25 14:55:04;;;;;;;44.35;17.92;;;;;;;1.12;98.11;98375.47;5080942;28;20048;-86
2021/11/25 14:57:32;;;;;;;40.60;17.60;;;;;;;1.22;97.31;98398.56;5074473;28;20052;-86
2021/11/25 15:00:01;;;;;;;37.47;17.48;;;;;;;1.05;98.62;98392.13;5077650;28;20158;-83
2021/11/25 15:02:39;;;;;;;42.38;17.50;;;;;;;1.10;97.22;98372.94;5094870;28;20054;-83
2021/11/25 15:05:12;;;;;;;40.78;18.45;;;;;;;1.04;98.72;98401.13;5093359;28;20402;-85
2021/11/25 15:07:41;;;;;;;40.75;18.15;;;;;;;1.11;97.61;98396.03;5094554;28;20047;-86
2021/11/25 15:10:11;;;;;;;42.42;18.88;;;;;;;0.89;99.34;98399.88;5086041;28;20052;-86
2021/11/25 15:12:39;;;;;;;39.50;18.63;;;;;;;1.09;98.68;98407.91;5093661;28;20113;-85
2021/11/25 15:15:11;;;;;;;47.17;20.15;;;;;;;1.00;97.43;98374.78;5093944;28;20052;-86
2021/11/25 15:17:40;;;;;;;42.92;18.23;;;;;;;0.94;98.98;98380.72;5094220;28;20044;-83
2021/11/25 15:20:10;;;;;;;38.50;17.05;;;;;;;0.99;98.59;98398.03;5086813;28;20131;-85
2021/11/25 15:22:38;;;;;;;34.40;17.55;;;;;;;0.88;98.72;98407.06;5073918;28;20055;-85
2021/11/25 15:25:10;;;;;;;41.83;18.40;;;;;;;0.82;99.04;98409.47;5079545;28;20040;-85
2021/11/25 15:27:39;;;;;;;40.70;18.05;;;;;;;0.87;98.83;98415.22;5083149;28;20036;-86
2021/11/25 15:30:09;;;;;;;42.30;17.67;;;;;;;0.72;98.86;98397.91;5093039;28;20139;-85
2021/11/25 15:32:37;;;;;;;38.38;16.80;;;;;;;0.74;100.00;98412.84;5093998;28;20063;-85
2021/11/25 15:35:04;;;;;;;44.78;17.85;;;;;;;0.77;98.96;98420.59;5093920;28;20039;-85
2021/11/25 15:37:32;;;;;;;46.30;18.98;;;;;;;0.82;99.60;98421.00;5085607;28;20051;-85
2021/11/25 15:39:59;;;;;;;47.03;18.88;;;;;;;0.69;99.53;98405.25;5073223;28;20477;-85
2021/11/25 15:42:28;;;;;;;45.13;19.65;;;;;;;0.85;98.60;98423.41;5073533;28;20049;-85
2021/11/25 15:44:55;;;;;;;42.13;17.35;;;;;;;0.78;100.00;98438.31;5089516;28;20419;-85
2021/11/25 15:47:23;;;;;;;44.85;18.25;;;;;;;0.79;99.46;98417.78;5093067;28;20074;-86
2021/11/25 15:49:51;;;;;;;35.30;17.38;;;;;;;0.79;99.78;98425.81;5092952;28;20487;-86
2021/11/25 15:52:18;;;;;;;39.10;17.10;;;;;;;0.77;99.82;98417.91;5093601;28;20139;-86
2021/11/25 15:54:45;;;;;;;36.88;17.58;;;;;;;0.79;98.69;98407.91;5075337;28;20044;-86
2021/11/25 15:57:14;;;;;;;36.67;17.00;;;;;;;0.87;98.87;98429.47;5093962;28;20052;-83
2021/11/25 15:59:44;;;;;;;44.45;18.77;;;;;;;0.91;98.59;98419.31;5090508;28;20134;-83
2021/11/25 16:02:12;;;;;;;39.80;17.55;;;;;;;0.86;97.86;98432.28;5083504;28;20138;-83
2021/11/25 16:04:39;;;;;;;42.15;18.60;;;;;;;0.86;98.20;98434.97;5095970;28;20484;-85
2021/11/25 16:07:06;;;;;;;42.55;17.65;;;;;;;0.76;99.08;98426.09;5093356;28;20055;-84
2021/11/25 16:09:36;;;;;;;37.80;17.42;;;;;;;0.67;98.68;98409.88;5094024;28;20060;-84
2021/11/25 16:12:03;;;;;;;38.47;16.30;;;;;;;0.78;98.71;98416.06;5075977;28;20152;-84
2021/11/25 16:14:32;;;;;;;40.03;18.60;;;;;;;0.78;98.62;98418.75;5074091;28;20072;-84
2021/11/25 16:17:01;;;;;;;34.65;15.70;;;;;;;0.73;98.79;98413.81;5087172;28;20139;-84
2021/11/25 16:19:32;;;;;;;40.50;17.75;;;;;;;0.65;98.94;98411.84;5093584;28;20500;-84
2021/11/25 16:21:59;;;;;;;39.10;16.90;;;;;;;0.86;98.36;98429.59;5093714;28;20502;-84
2021/11/25 16:24:28;;;;;;;37.80;15.23;;;;;;;0.68;99.46;98432.97;5093461;28;20044;-84
2021/11/25 16:26:57;;;;;;;40.30;17.13;;;;;;;0.70;99.88;98408.75;5090918;28;20048;-84
2021/11/25 16:29:24;;;;;;;35.75;15.93;;;;;;;0.83;98.38;98430.72;5092283;28;20058;-84
2021/11/25 16:31:51;;;;;;;37.15;17.02;;;;;;;0.61;99.07;98413.13;5091555;28;20048;-84
2021/11/25 16:34:23;;;;;;;42.97;18.88;;;;;;;0.67;99.68;98430.44;5091724;28;20056;-84
2021/11/25 16:36:50;;;;;;;39.75;19.08;;;;;;;0.63;99.29;98407.63;5092390;28;20044;-84
2021/11/25 16:39:17;;;;;;;46.42;20.40;;;;;;;0.72;100.00;98438.03;5076810;28;20080;-84
2021/11/25 16:41:45;;;;;;;44.85;18.52;;;;;;;0.66;100.00;98426.94;5086353;28;20465;-84
2021/11/25 16:44:12;;;;;;;49.10;20.77;;;;;;;0.74;100.00;98423.56;5093896;28;20044;-84
2021/11/25 16:49:29;;;;;;;37.92;17.73;;;;;;;0.79;99.81;98437.34;5073651;28;20519;-84
2021/11/25 16:51:56;;;;;;;40.38;17.58;;;;;;;0.65;100.00;98417.22;5091589;28;20046;-84
2021/11/25 16:54:25;;;;;;;37.60;17.35;;;;;;;0.72;99.19;98430.03;5096767;28;20048;-83
2021/11/25 16:56:58;;;;;;;42.85;17.77;;;;;;;0.55;100.00;98418.19;5096316;28;20506;-84
2021/11/25 16:59:31;;;;;;;51.17;19.45;;;;;;;0.69;100.00;98447.19;5096858;28;20117;-83
2021/11/25 17:02:06;;;;;;;40.92;17.27;;;;;;;0.71;99.39;98445.25;5096837;27;20082;-84
2021/11/25 17:04:35;;;;;;;38.67;17.85;;;;;;;0.49;100.00;98428.44;5097393;28;20131;-84
2021/11/25 17:07:04;;;;;;;38.60;17.13;;;;;;;0.57;100.00;98442.97;5082719;28;20072;-84
2021/11/25 17:09:35;;;;;;;34.25;17.02;;;;;;;0.70;99.35;98463.09;5097183;28;20448;-84
2021/11/25 17:12:03;;;;;;;42.60;17.80;;;;;;;0.49;100.00;98457.88;5095909;28;20082;-84
2021/11/25 17:14:31;;;;;;;41.40;18.67;;;;;;;0.39;100.00;98445.47;5096910;28;20054;-84
2021/11/25 17:16:58;;;;;;;50.20;21.25;;;;;;;0.46;100.00;98458.13;5083239;28;20400;-84
2021/11/25 17:19:26;;;;;;;45.03;19.15;;;;;;;0.59;100.00;98468.59;5076606;28;20468;-84
2021/11/25 17:21:55;;;;;;;44.53;21.58;;;;;;;0.45;100.00;98459.16;5089473;28;20506;-84
2021/11/25 17:24:24;;;;;;;49.05;22.05;;;;;;;0.54;100.00;98468.16;5096421;28;20044;-84
2021/11/25 17:26:51;;;;;;;46.15;22.73;;;;;;;0.56;100.00;98471.53;5091056;28;20075;-86
2021/11/25 17:29:21;;;;;;;44.92;19.35;;;;;;;0.47;100.00;98461.69;5095175;28;20056;-84
2021/11/25 17:32:11;;;;;;;;;;;;;;;;;;;;;
2021/11/25 17:34:40;;;;;;;38.80;16.90;;;;;;;0.40;100.00;98469.38;5097366;28;20056;-87
2021/11/25 17:37:30;;;;;;;45.00;20.83;;;;;;;0.52;100.00;98462.09;5091600;28;20056;-85
2021/11/25 17:39:59;;;;;;;32.67;16.63;;;;;;;0.39;100.00;98445.47;5109207;28;20051;-86
2021/11/25 17:42:30;;;;;;;36.60;17.67;;;;;;;0.44;100.00;98453.94;5095279;28;20048;-86
2021/11/25 17:45:04;;;;;;;47.42;17.73;;;;;;;0.40;100.00;98465.88;5095855;28;20055;-86
2021/11/25 17:47:42;;;;;;;42.78;18.27;;;;;;;0.39;100.00;98466.84;5094598;28;20084;-86
2021/11/25 17:50:11;;;;;;;37.95;17.13;;;;;;;0.56;100.00;98478.69;5092463;28;20510;-85
2021/11/25 17:52:49;;;;;;;41.30;19.20;;;;;;;0.45;100.00;98458.28;5095312;28;20048;-86
2021/11/25 17:55:19;;;;;;;38.58;16.75;;;;;;;0.59;100.00;98479.28;5075905;28;20056;-86
2021/11/25 18:00:44;;;;;;;48.28;17.77;;;;;;;0.65;100.00;98486.75;5093665;27;19946;-85
2021/11/25 18:03:22;;;;;;;32.55;15.82;;;;;;;0.70;100.00;98476.47;5076972;28;20534;-86
2021/11/25 18:05:51;;;;;;;43.75;18.05;;;;;;;0.41;99.98;98456.88;5082263;28;20421;-86
2021/11/25 18:08:20;;;;;;;45.85;18.80;;;;;;;0.50;100.00;98470.25;5093424;28;20059;-86
2021/11/25 18:10:55;;;;;;;40.92;18.63;;;;;;;0.47;99.92;98451.81;5096025;28;20138;-85
2021/11/25 18:13:29;;;;;;;42.15;18.65;;;;;;;0.69;99.44;98492.66;5075682;28;20049;-85
2021/11/25 18:16:01;;;;;;;41.30;18.75;;;;;;;0.61;99.31;98471.97;5075094;28;20048;-86
2021/11/25 18:18:30;;;;;;;43.28;19.15;;;;;;;0.46;99.58;98470.69;5090395;28;20055;-86
2021/11/25 18:23:46;;;;;;;36.75;18.83;;;;;;;0.64;99.76;98484.22;5085169;28;20507;-85
2021/11/25 18:29:33;;;;;;;36.28;16.95;;;;;;;0.63;98.95;98483.41;5083857;27;20053;-85
2021/11/25 18:32:13;;;;;;;39.55;19.30;;;;;;;0.56;99.53;98482.25;5082454;28;20127;-85
2021/11/25 18:34:50;;;;;;;;;;;;;;;0.65;99.06;98477.91;5076325;28;20048;-86
2021/11/25 18:41:13;;;;;;;37.95;17.25;;;;;;;0.47;100.00;98467.88;5075779;28;20055;-85
2021/11/25 18:44:17;;;;;;;40.40;18.50;;;;;;;0.53;100.00;98482.53;5088133;28;20132;-85
2021/11/25 18:47:03;;;;;;;40.80;19.10;;;;;;;0.49;100.00;98460.53;5077706;28;20127;-85
2021/11/25 18:49:34;;;;;;;43.55;20.10;;;;;;;0.60;100.00;98483.63;5090207;28;20049;-85
2021/11/25 18:52:07;;;;;;;38.25;17.88;;;;;;;0.49;100.00;98452.50;5078637;28;20047;-85
2021/11/25 19:01:36;;;;;;;35.53;17.30;;;;;;;0.68;99.97;98453.53;5070525;27;20060;-85
2021/11/25 19:04:27;;;;;;;38.08;17.42;;;;;;;0.78;99.17;98466.91;5074316;28;20048;-86
2021/11/25 19:07:12;;;;;;;39.28;19.10;;;;;;;0.82;99.95;98466.50;5073948;28;20051;-85
2021/11/25 19:10:15;;;;;;;38.25;16.83;;;;;;;0.68;99.08;98454.38;5074333;28;20135;-85
2021/11/25 19:16:25;;;;;;;38.28;16.67;;;;;;;0.42;99.41;98448.72;5090258;28;20094;-85
2021/11/25 19:32:24;;;;;;;30.38;14.50;;;;;;;0.42;100.00;98439.84;5077441;28;20062;-85
2021/11/25 19:34:55;;;;;;;54.35;22.40;;;;;;;0.51;99.29;98422.94;5084819;28;20381;-85
2021/11/25 19:40:53;;;;;;;34.53;16.40;;;;;;;0.66;98.81;98436.75;5104174;28;20035;-85
2021/11/25 19:50:07;;;;;;;31.52;13.90;;;;;;;0.45;99.87;98413.69;5083274;28;20047;-86
2021/11/25 19:52:38;;;;;;;27.73;13.25;;;;;;;0.58;100.00;98448.16;5072878;28;20144;-85
2021/11/25 19:55:15;;;;;;;32.90;14.80;;;;;;;0.58;100.00;98450.00;5093339;28;20044;-85
2021/11/25 19:57:43;;;;;;;29.35;14.88;;;;;;;0.41;100.00;98414.94;5073066;28;20059;-85
2021/11/25 20:00:15;;;;;;;28.63;14.02;;;;;;;0.47;100.00;98408.19;5087761;28;20059;-85
2021/11/25 20:03:09;;;;;;;38.10;16.88;;;;;;;0.46;100.00;98410.00;5094301;28;20052;-86
2021/11/25 20:06:13;;;;;;;27.75;13.98;;;;;;;0.59;99.97;98430.28;5074640;28;20132;-86
2021/11/25 20:08:44;;;;;;;32.70;14.63;;;;;;;0.56;98.33;98423.41;5074377;28;20109;-85
2021/11/25 20:11:11;;;;;;;37.30;16.00;;;;;;;0.50;100.00;98440.84;5093406;28;20494;-85
2021/11/25 20:17:11;;;;;;;31.30;14.40;;;;;;;0.54;98.79;98430.69;5088758;28;20131;-86
2021/11/25 20:19:39;;;;;;;31.35;13.68;;;;;;;0.59;98.98;98425.78;5092388;28;20052;-85
2021/11/25 20:22:12;;;;;;;34.05;15.15;;;;;;;0.48;98.68;98408.06;5091299;28;20044;-85
2021/11/25 20:24:45;;;;;;;33.55;14.90;;;;;;;0.47;99.94;98405.53;5074115;28;20491;-85
2021/11/25 20:27:15;;;;;;;35.70;15.90;;;;;;;0.45;100.00;98404.78;5094076;28;20040;-86
2021/11/25 20:30:02;;;;;;;;;;;;;;;0.53;100.00;98424.50;5096341;28;20044;-86
